Relevés horaires Bouveret (Suisse)


Relevés horaires à Bouveret - Samedi 07 Avr. 2018
Heure UTC1 Température [°C] Vent [km/h] Hum. [%] Pres.4 [hPa] Visi. [Km] Nébu. [octa] Préc.5 [mm] Cond.
2m. Res. Ros. Dir.2 Vit. Moy. Raf.3
23:00 16.9 15.9 3.2 SSE 24.1 -- 37.0 40 1009.5(-0.8/3h) -- -- -- --
22:00 12.7 12.7 5.5 ONO 3.7 -- 7.4 62 1010.9(0.3/3h) -- -- -- --
21:00 13.5 13.5 4.9 SSE 3.7 -- 27.8 56 1011(0.3/3h) -- -- -- --
20:00 13.9 12.9 5.7 OSO 13.0 -- 27.8 58 1010.8(0.1/3h) -- -- -- --
19:00 15.2 14.3 5.6 SE 14.8 -- 27.8 53 1010.2(-0.4/3h) -- -- -- --
18:00 14.2 14.2 4.7 SE 3.7 -- 13.0 53 1010.6(-0.8/3h) -- -- -- --
17:00 14.8 14.8 4.1 E 1.9 -- 7.4 49 1010.6(-1.3/3h) -- -- -- --
16:00 12.5 12.5 4.1 NO 3.7 -- 7.4 57 1011.1(-1.7/3h) -- -- -- --
15:00 12.9 12.9 2.4 ONO 5.6 -- 13.0 49 1011.6(-2.1/3h) -- -- -- --
14:00 11.6 11.4 4.9 NO 5.6 -- 13.0 63 1012.5(-2.2/3h) -- -- -- --
13:00 11.4 11.2 5.1 NNO 5.6 -- 7.4 65 1013(-2.5/3h) -- -- -- --
12:00 9.6 9.6 6.7 ONO 3.7 -- 14.8 82 1014.4(-1.8/3h) -- -- -- --
11:00 9.3 7.9 6.6 NO 9.3 -- 11.1 83 1015.2(-1.0/3h) -- -- -- --
10:00 9.0 9.0 6.0 NNE 3.7 -- 9.3 81 1016(0.1/3h) -- -- -- --
09:00 8.0 8.0 5.9 NNO 3.7 -- 14.8 87 1016.5(0.8/3h) -- -- -- --
08:00 7.7 6.4 5.9 NO 7.4 -- 11.1 88 1016.5(1.0/3h) -- -- -- --
07:00 7.9 7.2 5.4 ONO 5.6 -- 14.8 84 1016.1(1.0/3h) -- -- -- --
06:00 7.4 7.4 5.3 ONO 3.7 -- 13.0 87 1015.8(0.5/3h) -- -- -- --
05:00 6.4 6.4 4.2 SSO 3.7 -- 13.0 86 1015.6(0.2/3h) -- -- -- --
04:00 7.3 6 4.7 O 7.4 -- 13.0 84 1015.2(-0.4/3h) -- -- -- --
03:00 6.8 6.8 4.1 NO 1.9 -- 11.1 83 1015.4(-0.1/3h) -- -- -- --
02:00 7.1 7.1 4.7 ONO 3.7 -- 7.4 85 1015.3(-0.3/3h) -- -- -- --
01:00 8.0 8.0 4.8 ONO 3.7 -- 7.4 80 1015.5(0.3/3h) -- -- -- --
00:00 8.0 8.0 3.8 SSE 1.9 -- 9.3 75 1015.3(-0.2/3h) -- -- -- --

1 Coordinated Universal Time. Actuellement il est 15:00 locale et 13:00 UTC.

2 Le vent souffle depuis la direction indiquée vers la direction oposée.

3 Les rafales max. sont disponible 40 min après l'heure du relevé.

4 Pour les stations d'altitude (plus de 600m) le géopotentiel du niveau le plus proche de la pression obligatoire est indiqué.

5 Les stations disposant d'un diffuseur peuvent indiquer "trace". Cela signifie que des précipitations ont touchés le sol mais que la quantité est inférieure à 0.1 mm.

Copyright

Les données affichées sur cette page sont la propriété exclusive de Météo Suisse.

Récapitulatif de la journée
Température [°C] Vent [km/h] Ensoleillement4 [h] Precipitations totale5 [mm] Pression [Hpa]
Min1 Max.2 Moy.3 Max. Min Max.
6.1 15.9 0 37.0 0 h 0 min 0 1009.5 1016.5

1 Température minimale relevée entre 18:00 UTC la veille et 18:00 UTC le jour donné.

2 Température maximale relevée entre 06:00 UTC le jour donné et 06:00 UTC le lendemain.

3 Vent moyen de la journée basé sur les relevés horaires.

4 Ensoleillement en heures relevé entre 06:00 UTC la veille et 06:00 UTC le jour donné.

5 Précipitations totales tombées entre 06:00 UTC la jour donné et 06:00 UTC le lendemain.

Graphiques horaires